Time,TemperatureF,DewpointF,PressureIn,WindDirection,WindDirectionDegrees,WindSpeedMPH,WindSpeedGustMPH,Humidity,HourlyPrecipIn,Conditions,Clouds,dailyrainin,SoftwareType,DateUTC
2013-03-28 00:00:00,44.5,40.6,30.02,NW,317,0.0,0.0,86,0.00,,,0.00,Wunderground v.1.15,2013-03-28 07:00:00,
2013-03-28 00:05:00,44.2,40.6,30.02,NW,317,0.0,0.0,87,0.00,,,0.00,Wunderground v.1.15,2013-03-28 07:05:00,
2013-03-28 00:15:00,43.8,40.2,30.02,NW,317,0.0,1.0,87,0.00,,,0.00,Wunderground v.1.15,2013-03-28 07:15:00,
2013-03-28 00:20:00,43.3,39.7,30.02,NW,317,0.0,0.0,87,0.00,,,0.00,Wunderground v.1.15,2013-03-28 07:20:00,
2013-03-28 00:30:00,43.1,39.5,30.02,NW,317,0.0,0.0,87,0.00,,,0.00,Wunderground v.1.15,2013-03-28 07:30:00,
2013-03-28 00:40:00,42.6,39.3,30.02,NW,317,0.0,1.0,88,0.00,,,0.00,Wunderground v.1.15,2013-03-28 07:40:00,
2013-03-28 00:45:00,42.3,39.0,30.02,NW,317,0.0,1.0,88,0.00,,,0.00,Wunderground v.1.15,2013-03-28 07:45:00,
2013-03-28 00:55:00,42.1,38.8,30.02,NW,317,1.0,1.0,88,0.00,,,0.00,Wunderground v.1.15,2013-03-28 07:55:00,
2013-03-28 01:00:00,41.9,38.6,30.02,NW,317,0.0,0.0,88,0.00,,,0.00,Wunderground v.1.15,2013-03-28 08:00:00,
2013-03-28 01:05:00,41.8,38.5,30.02,NW,317,0.0,0.0,88,0.00,,,0.00,Wunderground v.1.15,2013-03-28 08:05:00,
2013-03-28 01:10:00,41.6,38.3,30.02,NW,317,0.0,2.0,88,0.00,,,0.00,Wunderground v.1.15,2013-03-28 08:10:00,
2013-03-28 01:20:00,41.3,38.3,30.03,NW,317,2.0,2.0,89,0.00,,,0.00,Wunderground v.1.15,2013-03-28 08:20:00,
2013-03-28 01:25:00,41.3,38.3,30.03,NW,317,1.0,2.0,89,0.00,,,0.00,Wunderground v.1.15,2013-03-28 08:25:00,
2013-03-28 01:30:00,41.5,38.5,30.03,NW,317,0.0,0.0,89,0.00,,,0.00,Wunderground v.1.15,2013-03-28 08:30:00,
2013-03-28 01:40:00,41.8,39.1,30.03,NW,317,0.0,0.0,90,0.00,,,0.00,Wunderground v.1.15,2013-03-28 08:40:00,
2013-03-28 01:45:00,41.8,39.1,30.03,NW,317,0.0,0.0,90,0.00,,,0.00,Wunderground v.1.15,2013-03-28 08:45:00,
2013-03-28 01:50:00,41.9,39.2,30.03,NW,317,0.0,0.0,90,0.00,,,0.00,Wunderground v.1.15,2013-03-28 08:50:00,
2013-03-28 01:55:00,42.1,39.4,30.03,NW,317,0.0,1.0,90,0.00,,,0.00,Wunderground v.1.15,2013-03-28 08:55:00,
2013-03-28 02:05:00,41.9,39.2,30.03,NW,317,1.0,2.0,90,0.00,,,0.00,Wunderground v.1.15,2013-03-28 09:05:00,
2013-03-28 02:10:00,41.8,39.1,30.03,NW,317,1.0,1.0,90,0.00,,,0.00,Wunderground v.1.15,2013-03-28 09:10:00,
2013-03-28 02:15:00,41.6,38.9,30.03,NW,317,1.0,2.0,90,0.00,,,0.00,Wunderground v.1.15,2013-03-28 09:15:00,
2013-03-28 02:20:00,41.5,38.8,30.03,NW,317,1.0,1.0,90,0.00,,,0.00,Wunderground v.1.15,2013-03-28 09:20:00,
2013-03-28 02:30:00,41.1,38.4,30.03,NW,317,1.0,1.0,90,0.00,,,0.00,Wunderground v.1.15,2013-03-28 09:30:00,
2013-03-28 02:35:00,40.9,38.2,30.03,NW,317,0.0,1.0,90,0.00,,,0.00,Wunderground v.1.15,2013-03-28 09:35:00,
2013-03-28 02:40:00,40.9,38.2,30.03,NW,317,0.0,0.0,90,0.00,,,0.00,Wunderground v.1.15,2013-03-28 09:40:00,
2013-03-28 02:45:00,40.8,38.1,30.03,NW,317,0.0,0.0,90,0.00,,,0.00,Wunderground v.1.15,2013-03-28 09:45:00,
2013-03-28 02:50:00,40.6,37.9,30.03,NW,317,0.0,0.0,90,0.00,,,0.00,Wunderground v.1.15,2013-03-28 09:50:00,
2013-03-28 03:00:00,40.6,37.9,30.03,NW,317,0.0,0.0,90,0.00,,,0.00,Wunderground v.1.15,2013-03-28 10:00:00,
2013-03-28 03:05:00,40.8,38.1,30.03,NW,317,0.0,0.0,90,0.00,,,0.00,Wunderground v.1.15,2013-03-28 10:05:00,
2013-03-28 03:10:00,40.9,38.2,30.03,NW,317,0.0,0.0,90,0.00,,,0.00,Wunderground v.1.15,2013-03-28 10:10:00,
2013-03-28 03:20:00,41.2,38.8,30.03,NW,317,0.0,0.0,91,0.00,,,0.00,Wunderground v.1.15,2013-03-28 10:20:00,
2013-03-28 03:25:00,41.3,38.9,30.03,NW,317,0.0,0.0,91,0.00,,,0.00,Wunderground v.1.15,2013-03-28 10:25:00,
2013-03-28 03:30:00,41.5,39.1,30.03,NW,317,0.0,0.0,91,0.00,,,0.00,Wunderground v.1.15,2013-03-28 10:30:00,
2013-03-28 03:35:00,41.6,39.2,30.03,NW,317,0.0,0.0,91,0.00,,,0.00,Wunderground v.1.15,2013-03-28 10:35:00,
2013-03-28 03:40:00,41.8,39.4,30.03,NW,317,0.0,0.0,91,0.00,,,0.00,Wunderground v.1.15,2013-03-28 10:40:00,
2013-03-28 03:50:00,41.9,39.5,30.03,NW,317,0.0,0.0,91,0.00,,,0.00,Wunderground v.1.15,2013-03-28 10:50:00,
2013-03-28 03:55:00,42.2,39.8,30.03,NW,317,0.0,0.0,91,0.00,,,0.00,Wunderground v.1.15,2013-03-28 10:55:00,
2013-03-28 04:00:00,42.3,39.9,30.03,NW,317,0.0,0.0,91,0.00,,,0.00,Wunderground v.1.15,2013-03-28 11:00:00,
2013-03-28 04:10:00,42.8,40.4,30.03,NW,317,0.0,0.0,91,0.00,,,0.00,Wunderground v.1.15,2013-03-28 11:10:00,
2013-03-28 04:15:00,42.9,40.2,30.03,NW,317,0.0,0.0,90,0.00,,,0.00,Wunderground v.1.15,2013-03-28 11:15:00,
2013-03-28 04:20:00,43.1,40.4,30.03,NW,317,0.0,0.0,90,0.00,,,0.00,Wunderground v.1.15,2013-03-28 11:20:00,
2013-03-28 04:25:00,43.1,40.4,30.03,NW,317,0.0,0.0,90,0.00,,,0.00,Wunderground v.1.15,2013-03-28 11:25:00,
2013-03-28 04:30:00,43.2,40.5,30.03,NW,317,0.0,0.0,90,0.00,,,0.00,Wunderground v.1.15,2013-03-28 11:30:00,
2013-03-28 04:35:00,43.3,40.6,30.03,NW,317,0.0,0.0,90,0.00,,,0.00,Wunderground v.1.15,2013-03-28 11:35:00,
2013-03-28 04:45:00,43.6,40.9,30.03,NW,317,0.0,0.0,90,0.00,,,0.00,Wunderground v.1.15,2013-03-28 11:45:00,
2013-03-28 04:50:00,43.6,40.9,30.03,NW,317,0.0,0.0,90,0.00,,,0.00,Wunderground v.1.15,2013-03-28 11:50:00,
2013-03-28 04:55:00,43.8,41.1,30.03,NW,317,0.0,0.0,90,0.00,,,0.00,Wunderground v.1.15,2013-03-28 11:55:00,
2013-03-28 05:05:00,43.9,41.2,30.03,NW,317,0.0,0.0,90,0.00,,,0.00,Wunderground v.1.15,2013-03-28 12:05:00,
2013-03-28 05:10:00,43.9,41.2,30.03,NW,317,0.0,0.0,90,0.00,,,0.00,Wunderground v.1.15,2013-03-28 12:10:00,
2013-03-28 05:15:00,44.1,41.1,30.03,NW,317,0.0,0.0,89,0.00,,,0.00,Wunderground v.1.15,2013-03-28 12:15:00,
2013-03-28 05:20:00,44.1,41.1,30.03,NW,317,1.0,2.0,89,0.00,,,0.00,Wunderground v.1.15,2013-03-28 12:20:00,
2013-03-28 05:25:00,44.1,41.1,30.03,NW,317,2.0,3.0,89,0.00,,,0.00,Wunderground v.1.15,2013-03-28 12:25:00,
2013-03-28 05:35:00,44.1,41.1,30.03,NW,317,2.0,3.0,89,0.00,,,0.00,Wunderground v.1.15,2013-03-28 12:35:00,
2013-03-28 05:40:00,44.2,41.2,30.03,West,267,2.0,2.0,89,0.00,,,0.00,Wunderground v.1.15,2013-03-28 12:40:00,
2013-03-28 05:45:00,44.3,41.3,30.03,West,267,1.0,2.0,89,0.00,,,0.00,Wunderground v.1.15,2013-03-28 12:45:00,
2013-03-28 05:55:00,44.2,40.9,30.03,West,267,0.0,0.0,88,0.00,,,0.00,Wunderground v.1.15,2013-03-28 12:55:00,
2013-03-28 06:00:00,44.1,40.8,30.04,West,267,0.0,0.0,88,0.00,,,0.00,Wunderground v.1.15,2013-03-28 13:00:00,
2013-03-28 06:05:00,44.1,40.8,30.04,West,267,0.0,0.0,88,0.00,,,0.00,Wunderground v.1.15,2013-03-28 13:05:00,
2013-03-28 06:15:00,43.9,40.6,30.04,West,267,0.0,0.0,88,0.00,,,0.00,Wunderground v.1.15,2013-03-28 13:15:00,
2013-03-28 06:20:00,43.8,40.5,30.04,West,267,0.0,0.0,88,0.00,,,0.00,Wunderground v.1.15,2013-03-28 13:20:00,
2013-03-28 06:25:00,43.6,40.6,30.04,West,267,0.0,0.0,89,0.00,,,0.00,Wunderground v.1.15,2013-03-28 13:25:00,
2013-03-28 06:30:00,43.3,40.0,30.04,West,267,0.0,0.0,88,0.00,,,0.00,Wunderground v.1.15,2013-03-28 13:30:00,
2013-03-28 06:40:00,43.1,40.1,30.04,West,267,0.0,0.0,89,0.00,,,0.00,Wunderground v.1.15,2013-03-28 13:40:00,
2013-03-28 06:45:00,43.1,40.1,30.05,West,267,0.0,0.0,89,0.00,,,0.00,Wunderground v.1.15,2013-03-28 13:45:00,
2013-03-28 06:50:00,42.9,39.9,30.05,West,267,0.0,0.0,89,0.00,,,0.00,Wunderground v.1.15,2013-03-28 13:50:00,
2013-03-28 07:00:00,42.6,39.9,30.05,West,267,0.0,0.0,90,0.00,,,0.00,Wunderground v.1.15,2013-03-28 14:00:00,
2013-03-28 07:05:00,42.6,39.9,30.05,West,267,0.0,0.0,90,0.00,,,0.00,Wunderground v.1.15,2013-03-28 14:05:00,
2013-03-28 07:10:00,42.6,39.9,30.05,West,267,0.0,0.0,90,0.00,,,0.00,Wunderground v.1.15,2013-03-28 14:10:00,
2013-03-28 07:20:00,42.8,40.1,30.05,West,267,0.0,0.0,90,0.00,,,0.00,Wunderground v.1.15,2013-03-28 14:20:00,
2013-03-28 07:25:00,42.8,40.1,30.05,West,267,0.0,1.0,90,0.00,,,0.00,Wunderground v.1.15,2013-03-28 14:25:00,
2013-03-28 07:30:00,42.9,40.2,30.06,West,267,1.0,1.0,90,0.00,,,0.00,Wunderground v.1.15,2013-03-28 14:30:00,
2013-03-28 07:40:00,43.2,40.5,30.06,West,267,1.0,1.0,90,0.00,,,0.00,Wunderground v.1.15,2013-03-28 14:40:00,
2013-03-28 07:45:00,43.3,40.6,30.07,West,267,0.0,1.0,90,0.00,,,0.00,Wunderground v.1.15,2013-03-28 14:45:00,
2013-03-28 07:50:00,43.5,40.8,30.07,West,267,0.0,0.0,90,0.00,,,0.00,Wunderground v.1.15,2013-03-28 14:50:00,
2013-03-28 07:55:00,43.6,40.9,30.07,West,267,0.0,0.0,90,0.00,,,0.00,Wunderground v.1.15,2013-03-28 14:55:00,
2013-03-28 08:05:00,44.1,41.4,30.07,West,267,0.0,0.0,90,0.00,,,0.00,Wunderground v.1.15,2013-03-28 15:05:00,
2013-03-28 08:10:00,44.5,41.7,30.07,West,267,0.0,0.0,90,0.00,,,0.00,Wunderground v.1.15,2013-03-28 15:10:00,
2013-03-28 08:15:00,44.8,42.0,30.08,West,267,0.0,0.0,90,0.00,,,0.00,Wunderground v.1.15,2013-03-28 15:15:00,
2013-03-28 08:25:00,45.7,42.6,30.08,West,267,2.0,2.0,89,0.00,,,0.00,Wunderground v.1.15,2013-03-28 15:25:00,
2013-03-28 08:30:00,46.1,42.7,30.08,West,267,3.0,3.0,88,0.00,,,0.00,Wunderground v.1.15,2013-03-28 15:30:00,
2013-03-28 08:35:00,46.5,42.8,30.08,West,267,2.0,3.0,87,0.00,,,0.00,Wunderground v.1.15,2013-03-28 15:35:00,
2013-03-28 08:40:00,47.1,43.1,30.08,West,267,1.0,1.0,86,0.00,,,0.00,Wunderground v.1.15,2013-03-28 15:40:00,
2013-03-28 08:50:00,48.6,44.0,30.08,West,267,0.0,0.0,84,0.00,,,0.00,Wunderground v.1.15,2013-03-28 15:50:00,
2013-03-28 08:55:00,49.4,44.8,30.08,West,267,0.0,0.0,84,0.00,,,0.00,Wunderground v.1.15,2013-03-28 15:55:00,
2013-03-28 09:00:00,50.2,45.2,30.08,West,267,0.0,0.0,83,0.00,,,0.00,Wunderground v.1.15,2013-03-28 16:00:00,
2013-03-28 09:10:00,52.3,45.6,30.08,West,268,0.0,0.0,78,0.00,,,0.00,Wunderground v.1.15,2013-03-28 16:10:00,
2013-03-28 09:15:00,53.1,45.7,30.09,East,94,0.0,1.0,76,0.00,,,0.00,Wunderground v.1.15,2013-03-28 16:15:00,
2013-03-28 09:25:00,54.5,46.0,30.09,East,86,1.0,1.0,73,0.00,,,0.00,Wunderground v.1.15,2013-03-28 16:25:00,
2013-03-28 09:30:00,55.1,46.6,30.09,ENE,72,1.0,2.0,73,0.00,,,0.00,Wunderground v.1.15,2013-03-28 16:30:00,
2013-03-28 09:35:00,55.6,46.3,30.09,SE,140,1.0,2.0,71,0.00,,,0.00,Wunderground v.1.15,2013-03-28 16:35:00,
2013-03-28 09:40:00,56.7,47.0,30.09,East,86,1.0,3.0,70,0.00,,,0.00,Wunderground v.1.15,2013-03-28 16:40:00,
2013-03-28 09:45:00,57.5,46.6,30.09,ENE,64,2.0,3.0,67,0.00,,,0.00,Wunderground v.1.15,2013-03-28 16:45:00,
2013-03-28 09:55:00,57.5,46.2,30.09,SE,128,2.0,5.0,66,0.00,,,0.00,Wunderground v.1.15,2013-03-28 16:55:00,
2013-03-28 10:00:00,56.7,46.3,30.10,NE,46,3.0,5.0,68,0.00,,,0.00,Wunderground v.1.15,2013-03-28 17:00:00,
2013-03-28 10:05:00,57.5,45.8,30.10,ESE,109,3.0,5.0,65,0.00,,,0.00,Wunderground v.1.15,2013-03-28 17:05:00,
2013-03-28 10:10:00,57.5,46.2,30.10,East,97,3.0,3.0,66,0.00,,,0.00,Wunderground v.1.15,2013-03-28 17:10:00,
2013-03-28 10:20:00,58.0,46.3,30.09,East,88,3.0,5.0,65,0.00,,,0.00,Wunderground v.1.15,2013-03-28 17:20:00,
2013-03-28 10:25:00,58.3,46.6,30.09,SE,142,3.0,5.0,65,0.00,,,0.00,Wunderground v.1.15,2013-03-28 17:25:00,
2013-03-28 10:30:00,57.8,45.7,30.09,ENE,61,3.0,3.0,64,0.00,,,0.00,Wunderground v.1.15,2013-03-28 17:30:00,
2013-03-28 10:40:00,58.7,45.7,30.09,SE,134,3.0,3.0,62,0.00,,,0.00,Wunderground v.1.15,2013-03-28 17:40:00,
2013-03-28 10:45:00,58.6,45.6,30.09,NNW,341,4.0,5.0,62,0.00,,,0.00,Wunderground v.1.15,2013-03-28 17:45:00,
2013-03-28 10:50:00,59.2,45.3,30.09,ESE,123,3.0,4.0,60,0.00,,,0.00,Wunderground v.1.15,2013-03-28 17:50:00,
2013-03-28 11:05:00,59.6,43.9,30.09,SSE,160,4.0,5.0,56,0.00,,,0.00,Wunderground v.1.15,2013-03-28 18:05:00,
2013-03-28 11:15:00,60.5,44.7,30.09,SE,134,4.0,6.0,56,0.00,,,0.00,Wunderground v.1.15,2013-03-28 18:15:00,
2013-03-28 11:25:00,60.4,45.5,30.09,ENE,76,3.0,7.0,58,0.00,,,0.00,Wunderground v.1.15,2013-03-28 18:25:00,
2013-03-28 11:30:00,59.9,45.5,30.09,ESE,103,5.0,7.0,59,0.00,,,0.00,Wunderground v.1.15,2013-03-28 18:30:00,
2013-03-28 11:35:00,60.5,45.6,30.09,SSE,152,6.0,7.0,58,0.00,,,0.00,Wunderground v.1.15,2013-03-28 18:35:00,
2013-03-28 11:45:00,61.2,46.3,30.09,East,100,2.0,4.0,58,0.00,,,0.00,Wunderground v.1.15,2013-03-28 18:45:00,
2013-03-28 11:50:00,60.5,46.5,30.09,ESE,105,3.0,3.0,60,0.00,,,0.00,Wunderground v.1.15,2013-03-28 18:50:00,
2013-03-28 11:55:00,60.7,46.3,30.09,East,93,3.0,3.0,59,0.00,,,0.00,Wunderground v.1.15,2013-03-28 18:55:00,
2013-03-28 12:00:00,60.1,48.3,30.09,East,88,3.0,3.0,65,0.00,,,0.00,Wunderground v.1.15,2013-03-28 19:00:00,
2013-03-28 12:10:00,59.0,48.1,30.09,ESE,116,2.0,2.0,67,0.00,,,0.00,Wunderground v.1.15,2013-03-28 19:10:00,
2013-03-28 12:15:00,58.1,48.7,30.09,ESE,109,3.0,4.0,71,0.00,,,0.01,Wunderground v.1.15,2013-03-28 19:15:00,
2013-03-28 12:25:00,57.0,50.9,30.09,ESE,107,2.0,3.0,80,0.09,,,0.02,Wunderground v.1.15,2013-03-28 19:25:00,
2013-03-28 12:30:00,56.9,51.1,30.09,ESE,107,0.0,0.0,81,0.05,,,0.02,Wunderground v.1.15,2013-03-28 19:30:00,
2013-03-28 12:35:00,56.9,51.8,30.09,ESE,107,0.0,0.0,83,0.04,,,0.03,Wunderground v.1.15,2013-03-28 19:35:00,
2013-03-28 12:55:00,56.9,51.5,30.09,ESE,107,0.0,0.0,82,0.00,,,0.03,Wunderground v.1.15,2013-03-28 19:55:00,
2013-03-28 13:00:00,56.9,50.1,30.10,ESE,107,0.0,0.0,78,0.00,,,0.03,Wunderground v.1.15,2013-03-28 20:00:00,
2013-03-28 13:05:00,57.0,51.2,30.10,ESE,107,0.0,0.0,81,0.00,,,0.03,Wunderground v.1.15,2013-03-28 20:05:00,
2013-03-28 13:10:00,57.0,51.6,30.10,ESE,107,0.0,0.0,82,0.00,,,0.04,Wunderground v.1.15,2013-03-28 20:10:00,
2013-03-28 13:20:00,56.6,50.8,30.11,ESE,103,0.0,0.0,81,0.16,,,0.07,Wunderground v.1.15,2013-03-28 20:20:00,
2013-03-28 13:25:00,56.6,51.8,30.11,ESE,103,0.0,0.0,84,0.18,,,0.08,Wunderground v.1.15,2013-03-28 20:25:00,
2013-03-28 13:35:00,56.5,52.0,30.11,East,101,0.0,3.0,85,0.14,,,0.10,Wunderground v.1.15,2013-03-28 20:35:00,
2013-03-28 13:40:00,56.0,50.3,30.11,East,101,1.0,1.0,81,0.08,,,0.10,Wunderground v.1.15,2013-03-28 20:40:00,
2013-03-28 13:45:00,56.2,51.1,30.10,East,101,1.0,1.0,83,0.05,,,0.10,Wunderground v.1.15,2013-03-28 20:45:00,
2013-03-28 13:55:00,56.3,51.5,30.10,East,101,0.0,0.0,84,0.04,,,0.11,Wunderground v.1.15,2013-03-28 20:55:00,
2013-03-28 14:00:00,56.5,51.7,30.10,East,101,0.0,0.0,84,0.04,,,0.11,Wunderground v.1.15,2013-03-28 21:00:00,
2013-03-28 14:05:00,56.3,50.9,30.10,East,101,0.0,0.0,82,0.04,,,0.12,Wunderground v.1.15,2013-03-28 21:05:00,
2013-03-28 14:15:00,56.7,51.3,30.10,NNW,340,0.0,0.0,82,0.04,,,0.12,Wunderground v.1.15,2013-03-28 21:15:00,
2013-03-28 14:20:00,56.9,51.5,30.10,NNW,340,0.0,0.0,82,0.00,,,0.12,Wunderground v.1.15,2013-03-28 21:20:00,
2013-03-28 14:30:00,57.0,51.2,30.09,NNW,340,0.0,0.0,81,0.00,,,0.12,Wunderground v.1.15,2013-03-28 21:30:00,
2013-03-28 14:40:00,57.6,51.5,30.09,NNW,340,0.0,0.0,80,0.00,,,0.13,Wunderground v.1.15,2013-03-28 21:40:00,
2013-03-28 14:45:00,58.0,51.9,30.09,NNW,340,0.0,0.0,80,0.00,,,0.13,Wunderground v.1.15,2013-03-28 21:45:00,
2013-03-28 14:50:00,58.3,51.5,30.09,NNW,340,0.0,0.0,78,0.00,,,0.13,Wunderground v.1.15,2013-03-28 21:50:00,
2013-03-28 15:00:00,58.0,50.5,30.09,NNW,340,0.0,0.0,76,0.00,,,0.13,Wunderground v.1.15,2013-03-28 22:00:00,
2013-03-28 15:10:00,58.0,50.8,30.09,NNE,27,0.0,0.0,77,0.00,,,0.13,Wunderground v.1.15,2013-03-28 22:10:00,
2013-03-28 15:15:00,58.3,50.8,30.09,NNE,27,0.0,0.0,76,0.00,,,0.13,Wunderground v.1.15,2013-03-28 22:15:00,
2013-03-28 15:20:00,58.3,50.8,30.09,NNE,27,0.0,0.0,76,0.00,,,0.13,Wunderground v.1.15,2013-03-28 22:20:00,
2013-03-28 15:30:00,58.4,50.9,30.09,NNE,27,0.0,0.0,76,0.00,,,0.13,Wunderground v.1.15,2013-03-28 22:30:00,
2013-03-28 15:35:00,58.6,51.8,30.09,NNE,27,0.0,1.0,78,0.00,,,0.13,Wunderground v.1.15,2013-03-28 22:35:00,
2013-03-28 15:40:00,58.4,51.2,30.09,NNE,16,0.0,0.0,77,0.00,,,0.13,Wunderground v.1.15,2013-03-28 22:40:00,
2013-03-28 15:50:00,58.6,51.1,30.08,WNW,299,1.0,1.0,76,0.00,,,0.13,Wunderground v.1.15,2013-03-28 22:50:00,
2013-03-28 15:55:00,58.7,50.4,30.08,WNW,299,1.0,1.0,74,0.00,,,0.13,Wunderground v.1.15,2013-03-28 22:55:00,
2013-03-28 16:00:00,59.2,51.3,30.08,WNW,299,1.0,1.0,75,0.00,,,0.13,Wunderground v.1.15,2013-03-28 23:00:00,
2013-03-28 16:10:00,59.8,52.6,30.08,WNW,299,0.0,0.0,77,0.00,,,0.13,Wunderground v.1.15,2013-03-28 23:10:00,
2013-03-28 16:15:00,59.9,52.7,30.08,WNW,299,1.0,1.0,77,0.00,,,0.13,Wunderground v.1.15,2013-03-28 23:15:00,
2013-03-28 16:20:00,59.8,51.1,30.08,WNW,299,1.0,3.0,73,0.00,,,0.13,Wunderground v.1.15,2013-03-28 23:20:00,
2013-03-28 16:25:00,59.8,51.5,30.08,WNW,297,2.0,3.0,74,0.00,,,0.13,Wunderground v.1.15,2013-03-28 23:25:00,
2013-03-28 16:35:00,59.9,49.7,30.08,NNW,344,2.0,2.0,69,0.00,,,0.13,Wunderground v.1.15,2013-03-28 23:35:00,
2013-03-28 16:40:00,60.4,50.2,30.08,West,271,2.0,3.0,69,0.00,,,0.13,Wunderground v.1.15,2013-03-28 23:40:00,
2013-03-28 16:45:00,61.0,50.8,30.08,West,275,2.0,3.0,69,0.00,,,0.13,Wunderground v.1.15,2013-03-28 23:45:00,
2013-03-28 16:55:00,61.2,50.2,30.08,WNW,284,2.0,2.0,67,0.00,,,0.13,Wunderground v.1.15,2013-03-28 23:55:00,
2013-03-28 17:00:00,60.9,49.9,30.08,WNW,293,3.0,5.0,67,0.00,,,0.13,Wunderground v.1.15,2013-03-29 00:00:00,
2013-03-28 17:05:00,60.7,49.7,30.08,NW,312,2.0,5.0,67,0.00,,,0.13,Wunderground v.1.15,2013-03-29 00:05:00,
2013-03-28 17:10:00,60.9,50.3,30.08,ESE,107,1.0,1.0,68,0.00,,,0.13,Wunderground v.1.15,2013-03-29 00:10:00,
2013-03-28 17:20:00,61.3,49.8,30.08,ESE,107,0.0,0.0,66,0.00,,,0.13,Wunderground v.1.15,2013-03-29 00:20:00,
2013-03-28 17:25:00,61.3,50.6,30.08,ESE,107,0.0,0.0,68,0.00,,,0.13,Wunderground v.1.15,2013-03-29 00:25:00,
2013-03-28 17:30:00,61.5,50.8,30.08,ESE,107,0.0,0.0,68,0.00,,,0.13,Wunderground v.1.15,2013-03-29 00:30:00,
2013-03-28 17:40:00,61.6,52.1,30.08,ESE,107,0.0,0.0,71,0.00,,,0.13,Wunderground v.1.15,2013-03-29 00:40:00,
2013-03-28 17:45:00,61.6,52.1,30.07,ESE,107,0.0,0.0,71,0.00,,,0.13,Wunderground v.1.15,2013-03-29 00:45:00,
2013-03-28 17:50:00,61.5,51.6,30.07,ESE,107,0.0,0.0,70,0.00,,,0.13,Wunderground v.1.15,2013-03-29 00:50:00,
2013-03-28 18:00:00,61.3,51.4,30.07,ESE,107,0.0,0.0,70,0.00,,,0.13,Wunderground v.1.15,2013-03-29 01:00:00,
2013-03-28 18:05:00,61.3,50.2,30.07,ESE,107,0.0,0.0,67,0.00,,,0.13,Wunderground v.1.15,2013-03-29 01:05:00,
2013-03-28 18:10:00,61.3,51.8,30.07,ESE,107,0.0,0.0,71,0.00,,,0.13,Wunderground v.1.15,2013-03-29 01:10:00,
2013-03-28 18:15:00,61.3,51.8,30.07,ESE,107,0.0,0.0,71,0.00,,,0.13,Wunderground v.1.15,2013-03-29 01:15:00,
2013-03-28 18:25:00,60.9,51.8,30.07,ESE,107,0.0,0.0,72,0.00,,,0.13,Wunderground v.1.15,2013-03-29 01:25:00,
2013-03-28 18:30:00,60.7,52.0,30.07,ESE,107,0.0,0.0,73,0.00,,,0.13,Wunderground v.1.15,2013-03-29 01:30:00,
2013-03-28 18:40:00,60.9,52.6,30.07,ESE,107,0.0,0.0,74,0.00,,,0.13,Wunderground v.1.15,2013-03-29 01:40:00,
2013-03-28 18:45:00,60.5,52.5,30.07,ESE,107,0.0,0.0,75,0.00,,,0.13,Wunderground v.1.15,2013-03-29 01:45:00,
2013-03-28 18:55:00,59.2,52.0,30.07,ESE,107,0.0,0.0,77,0.00,,,0.13,Wunderground v.1.15,2013-03-29 01:55:00,
2013-03-28 19:05:00,58.1,52.3,30.07,ESE,107,0.0,0.0,81,0.00,,,0.13,Wunderground v.1.15,2013-03-29 02:05:00,
2013-03-28 19:10:00,57.6,51.8,30.07,ESE,107,0.0,0.0,81,0.00,,,0.13,Wunderground v.1.15,2013-03-29 02:10:00,
2013-03-28 19:15:00,57.2,51.8,30.07,ESE,107,0.0,0.0,82,0.00,,,0.13,Wunderground v.1.15,2013-03-29 02:15:00,
2013-03-28 19:25:00,56.2,51.1,30.07,ESE,107,0.0,0.0,83,0.00,,,0.13,Wunderground v.1.15,2013-03-29 02:25:00,
2013-03-28 19:30:00,55.7,50.9,30.08,ESE,107,0.0,0.0,84,0.00,,,0.13,Wunderground v.1.15,2013-03-29 02:30:00,
2013-03-28 19:35:00,55.3,50.9,30.08,ESE,107,0.0,0.0,85,0.00,,,0.13,Wunderground v.1.15,2013-03-29 02:35:00,
2013-03-28 19:45:00,54.4,50.0,30.08,ESE,107,0.0,0.0,85,0.00,,,0.13,Wunderground v.1.15,2013-03-29 02:45:00,
2013-03-28 19:50:00,53.9,49.8,30.08,ESE,107,0.0,0.0,86,0.00,,,0.13,Wunderground v.1.15,2013-03-29 02:50:00,
2013-03-28 19:55:00,53.5,49.4,30.08,ESE,107,0.0,0.0,86,0.00,,,0.13,Wunderground v.1.15,2013-03-29 02:55:00,
2013-03-28 20:00:00,53.1,49.3,30.08,ESE,107,0.0,0.0,87,0.00,,,0.13,Wunderground v.1.15,2013-03-29 03:00:00,
2013-03-28 20:10:00,52.3,48.9,30.08,ESE,107,0.0,0.0,88,0.00,,,0.13,Wunderground v.1.15,2013-03-29 03:10:00,
2013-03-28 20:15:00,52.0,48.6,30.08,ESE,107,0.0,0.0,88,0.00,,,0.13,Wunderground v.1.15,2013-03-29 03:15:00,
2013-03-28 20:20:00,51.9,48.5,30.08,ESE,107,0.0,0.0,88,0.00,,,0.13,Wunderground v.1.15,2013-03-29 03:20:00,
2013-03-28 20:30:00,51.1,48.0,30.09,ESE,107,0.0,1.0,89,0.00,,,0.13,Wunderground v.1.15,2013-03-29 03:30:00,
2013-03-28 20:35:00,50.7,47.6,30.09,ESE,107,1.0,1.0,89,0.00,,,0.13,Wunderground v.1.15,2013-03-29 03:35:00,
2013-03-28 20:40:00,50.4,47.3,30.09,ESE,107,1.0,1.0,89,0.00,,,0.13,Wunderground v.1.15,2013-03-29 03:40:00,
2013-03-28 20:50:00,49.9,47.1,30.10,ESE,107,0.0,0.0,90,0.00,,,0.13,Wunderground v.1.15,2013-03-29 03:50:00,
2013-03-28 20:55:00,49.6,46.8,30.10,ESE,107,0.0,0.0,90,0.00,,,0.13,Wunderground v.1.15,2013-03-29 03:55:00,
2013-03-28 21:00:00,49.5,46.7,30.10,ESE,107,0.0,0.0,90,0.00,,,0.13,Wunderground v.1.15,2013-03-29 04:00:00,
2013-03-28 21:10:00,49.1,46.6,30.10,ESE,107,1.0,1.0,91,0.00,,,0.13,Wunderground v.1.15,2013-03-29 04:10:00,
2013-03-28 21:15:00,48.8,46.3,30.11,ESE,107,1.0,1.0,91,0.00,,,0.13,Wunderground v.1.15,2013-03-29 04:15:00,
2013-03-28 21:25:00,48.5,46.0,30.11,ESE,107,0.0,1.0,91,0.00,,,0.13,Wunderground v.1.15,2013-03-29 04:25:00,
2013-03-28 21:30:00,48.2,45.7,30.11,ESE,107,1.0,1.0,91,0.00,,,0.13,Wunderground v.1.15,2013-03-29 04:30:00,
2013-03-28 21:40:00,47.7,45.5,30.11,ESE,107,0.0,0.0,92,0.00,,,0.13,Wunderground v.1.15,2013-03-29 04:40:00,
2013-03-28 21:45:00,47.7,45.5,30.11,ESE,107,0.0,2.0,92,0.00,,,0.13,Wunderground v.1.15,2013-03-29 04:45:00,
2013-03-28 21:50:00,47.6,45.4,30.11,ESE,107,1.0,2.0,92,0.00,,,0.13,Wunderground v.1.15,2013-03-29 04:50:00,
2013-03-28 22:00:00,47.3,45.1,30.12,ESE,107,1.0,1.0,92,0.00,,,0.13,Wunderground v.1.15,2013-03-29 05:00:00,
2013-03-28 22:05:00,47.0,44.8,30.12,ESE,107,0.0,1.0,92,0.00,,,0.13,Wunderground v.1.15,2013-03-29 05:05:00,
2013-03-28 22:15:00,46.7,44.5,30.13,ESE,107,0.0,0.0,92,0.00,,,0.13,Wunderground v.1.15,2013-03-29 05:15:00,
2013-03-28 22:20:00,46.4,44.2,30.13,ESE,107,0.0,0.0,92,0.00,,,0.13,Wunderground v.1.15,2013-03-29 05:20:00,
2013-03-28 22:25:00,46.4,44.2,30.13,ESE,107,0.0,0.0,92,0.00,,,0.13,Wunderground v.1.15,2013-03-29 05:25:00,
2013-03-28 22:30:00,46.4,44.2,30.13,ESE,107,0.0,1.0,92,0.00,,,0.13,Wunderground v.1.15,2013-03-29 05:30:00,
2013-03-28 22:35:00,46.2,44.0,30.13,ESE,107,1.0,1.0,92,0.00,,,0.13,Wunderground v.1.15,2013-03-29 05:35:00,
2013-03-28 22:45:00,45.8,43.6,30.12,ESE,107,0.0,0.0,92,0.00,,,0.13,Wunderground v.1.15,2013-03-29 05:45:00,
2013-03-28 22:50:00,45.5,43.3,30.12,ESE,107,0.0,0.0,92,0.00,,,0.13,Wunderground v.1.15,2013-03-29 05:50:00,
2013-03-28 23:00:00,45.2,43.3,30.12,ESE,107,0.0,0.0,93,0.00,,,0.13,Wunderground v.1.15,2013-03-29 06:00:00,
2013-03-28 23:05:00,45.1,43.2,30.12,ESE,107,0.0,0.0,93,0.00,,,0.13,Wunderground v.1.15,2013-03-29 06:05:00,
2013-03-28 23:10:00,44.9,43.0,30.12,ESE,107,0.0,0.0,93,0.00,,,0.13,Wunderground v.1.15,2013-03-29 06:10:00,
2013-03-28 23:20:00,44.8,42.9,30.12,ESE,107,0.0,1.0,93,0.00,,,0.13,Wunderground v.1.15,2013-03-29 06:20:00,
2013-03-28 23:25:00,44.6,42.7,30.12,ESE,107,1.0,1.0,93,0.00,,,0.13,Wunderground v.1.15,2013-03-29 06:25:00,
2013-03-28 23:30:00,44.5,42.6,30.12,ESE,107,1.0,1.0,93,0.00,,,0.13,Wunderground v.1.15,2013-03-29 06:30:00,
2013-03-28 23:35:00,44.3,42.4,30.12,ESE,107,0.0,1.0,93,0.00,,,0.13,Wunderground v.1.15,2013-03-29 06:35:00,
2013-03-28 23:45:00,44.3,42.4,30.13,ESE,107,1.0,1.0,93,0.00,,,0.13,Wunderground v.1.15,2013-03-29 06:45:00,
2013-03-28 23:50:00,44.2,42.3,30.13,ESE,107,0.0,1.0,93,0.00,,,0.13,Wunderground v.1.15,2013-03-29 06:50:00,
2013-03-28 23:55:00,44.2,42.3,30.13,ESE,107,1.0,1.0,93,0.00,,,0.13,Wunderground v.1.15,2013-03-29 06:55:00,